Terminal Aerodrome Forecast
Issued by NWS Wilmington, NC

Home | Current Version | Previous Version | Text Only | Print | Product List | Glossary On
Versions: 1 2 3 4 5 6 7 8 9 10 11 12 13 14 15 16
000
FTUS42 KILM 031915 AAA
TAFILM
TAF AMD
KILM 031915Z 0319/0418 19010KT P6SM VCTS FEW030CB SCT040 BKN100
     FM040200 VRB03KT P6SM VCSH BKN080
     FM040800 VRB03KT 5SM BR SCT080 SCT120
     FM041400 VRB05KT P6SM VCSH BKN060=

USA.gov is the U.S. government's official web portal to all federal, state and local government web resources and services.